createdAt,value
2022-10-26T00:01:12.808Z,5.93
2022-10-26T00:03:41.983Z,6.20
2022-10-26T00:06:15.534Z,6.25
2022-10-26T00:08:42.593Z,6.70
2022-10-26T00:11:10.914Z,5.57
2022-10-26T00:13:41.426Z,6.13
2022-10-26T00:16:24.716Z,6.07
2022-10-26T00:18:51.851Z,6.15
2022-10-26T00:21:19.103Z,7.28
2022-10-26T00:23:46.206Z,6.45
2022-10-26T00:26:13.164Z,8.27
2022-10-26T00:28:40.272Z,7.38
2022-10-26T00:31:12.596Z,7.65
2022-10-26T00:33:39.705Z,7.07
2022-10-26T00:36:06.845Z,7.32
2022-10-26T00:38:33.801Z,7.50
2022-10-26T00:41:01.882Z,7.93
2022-10-26T00:43:28.835Z,7.60
2022-10-26T00:45:58.802Z,7.32
2022-10-26T00:48:40.863Z,7.18
2022-10-26T00:51:13.706Z,7.43
2022-10-26T00:53:40.840Z,7.03
2022-10-26T00:56:08.415Z,6.72
2022-10-26T00:58:36.239Z,6.20
2022-10-26T01:01:03.139Z,6.57
2022-10-26T01:03:31.974Z,6.18
2022-10-26T01:06:03.278Z,6.55
2022-10-26T01:08:30.620Z,7.25
2022-10-26T01:10:59.754Z,6.80
2022-10-26T01:13:28.739Z,6.30
2022-10-26T01:16:38.439Z,6.07
2022-10-26T01:19:38.207Z,6.40
2022-10-26T01:22:26.123Z,7.00
2022-10-26T01:25:07.322Z,6.20
2022-10-26T01:27:41.373Z,7.65
2022-10-26T01:30:25.190Z,6.50
2022-10-26T01:33:23.011Z,7.22
2022-10-26T01:36:46.234Z,6.53
2022-10-26T01:39:22.559Z,6.90
2022-10-26T01:41:52.389Z,6.72
2022-10-26T01:44:29.541Z,6.70
2022-10-26T01:46:59.216Z,7.15
2022-10-26T01:49:34.754Z,6.85
2022-10-26T01:52:01.718Z,8.07
2022-10-26T01:54:29.352Z,6.68
2022-10-26T01:57:02.212Z,6.93
2022-10-26T01:59:53.414Z,7.30
2022-10-26T02:02:31.911Z,6.80
2022-10-26T02:05:22.570Z,6.72
2022-10-26T02:07:55.333Z,7.10
2022-10-26T02:10:43.458Z,7.03
2022-10-26T02:13:20.773Z,6.82
2022-10-26T02:15:55.476Z,7.22
2022-10-26T02:18:29.015Z,7.22
2022-10-26T02:21:01.295Z,8.65
2022-10-26T02:23:31.479Z,7.57
2022-10-26T02:26:19.717Z,7.22
2022-10-26T02:28:51.047Z,7.20
2022-10-26T02:31:19.632Z,7.72
2022-10-26T02:33:51.128Z,6.82
2022-10-26T02:36:26.642Z,6.88
2022-10-26T02:38:54.339Z,7.78
2022-10-26T02:41:26.750Z,7.90
2022-10-26T02:44:08.724Z,6.82
2022-10-26T02:46:36.051Z,7.85
2022-10-26T02:49:03.232Z,6.88
2022-10-26T02:51:51.305Z,7.50
2022-10-26T02:54:48.139Z,6.65
2022-10-26T02:57:30.604Z,7.53
2022-10-26T02:59:58.262Z,7.85
2022-10-26T03:02:30.248Z,7.18
2022-10-26T03:05:06.411Z,6.70
2022-10-26T03:07:36.055Z,6.88
2022-10-26T03:10:03.394Z,7.32
2022-10-26T03:12:30.132Z,6.97
2022-10-26T03:15:02.939Z,6.65
2022-10-26T03:17:29.676Z,7.50
2022-10-26T03:19:56.628Z,7.80
2022-10-26T03:22:23.636Z,6.85
2022-10-26T03:24:50.607Z,7.47
2022-10-26T03:27:18.604Z,7.20
2022-10-26T03:29:45.641Z,8.40
2022-10-26T03:32:12.458Z,8.10
2022-10-26T03:34:39.423Z,8.35
2022-10-26T03:37:06.148Z,7.25
2022-10-26T03:39:33.076Z,8.23
2022-10-26T03:41:59.858Z,7.53
2022-10-26T03:44:27.794Z,9.48
2022-10-26T03:46:54.545Z,7.72
2022-10-26T03:49:29.265Z,7.05
2022-10-26T03:51:58.981Z,7.57
2022-10-26T03:54:28.771Z,8.35
2022-10-26T03:56:55.539Z,8.77
2022-10-26T03:59:22.490Z,11.40
2022-10-26T04:01:52.681Z,10.52
2022-10-26T04:04:22.463Z,11.00
2022-10-26T04:06:49.265Z,10.80
2022-10-26T04:09:16.202Z,10.27
2022-10-26T04:11:42.990Z,10.43
2022-10-26T04:14:09.994Z,9.48
2022-10-26T04:16:36.727Z,8.93
2022-10-26T04:19:05.240Z,9.30
2022-10-26T04:21:33.173Z,9.55
2022-10-26T04:24:00.143Z,9.20
2022-10-26T04:26:27.087Z,10.13
2022-10-26T04:28:54.356Z,10.23
2022-10-26T04:31:21.278Z,10.05
2022-10-26T04:33:48.343Z,8.95
2022-10-26T04:36:15.089Z,11.85
2022-10-26T04:38:42.085Z,10.38
2022-10-26T04:41:09.022Z,9.10
2022-10-26T04:43:36.445Z,11.80
2022-10-26T04:46:03.196Z,11.75
2022-10-26T04:48:30.232Z,10.55
2022-10-26T04:51:00.509Z,10.93
2022-10-26T04:53:28.349Z,9.73
2022-10-26T04:55:59.468Z,10.05
2022-10-26T04:58:27.869Z,10.55
2022-10-26T05:00:55.093Z,10.85
2022-10-26T05:03:23.135Z,10.75
2022-10-26T05:05:49.899Z,10.13
2022-10-26T05:08:16.886Z,11.27
2022-10-26T05:10:43.682Z,10.82
2022-10-26T05:13:10.876Z,10.52
2022-10-26T05:15:37.613Z,11.38
2022-10-26T05:18:06.026Z,11.25
2022-10-26T05:20:35.900Z,10.10
2022-10-26T05:23:07.474Z,10.35
2022-10-26T05:25:36.412Z,10.25
2022-10-26T05:28:09.637Z,9.63
2022-10-26T05:30:36.533Z,9.88
2022-10-26T05:33:03.853Z,9.90
2022-10-26T05:35:34.783Z,10.95
2022-10-26T05:38:11.353Z,10.27
2022-10-26T05:40:38.211Z,10.57
2022-10-26T05:43:05.274Z,10.13
2022-10-26T05:45:32.362Z,10.10
2022-10-26T05:48:02.530Z,9.40
2022-10-26T05:50:30.056Z,10.30
2022-10-26T05:52:57.035Z,10.30
2022-10-26T05:55:24.155Z,10.20
2022-10-26T05:57:51.680Z,11.05
2022-10-26T06:00:20.308Z,10.60
2022-10-26T06:03:02.326Z,10.35
2022-10-26T06:05:35.594Z,10.75
2022-10-26T06:08:03.041Z,12.85
2022-10-26T06:10:30.049Z,11.18
2022-10-26T06:12:57.156Z,12.07
2022-10-26T06:15:24.612Z,10.38
2022-10-26T06:18:04.468Z,10.77
2022-10-26T06:20:55.448Z,11.02
2022-10-26T06:23:28.075Z,11.05
2022-10-26T06:26:25.701Z,9.98
2022-10-26T06:29:20.287Z,11.10
2022-10-26T06:34:25.604Z,11.55
2022-10-26T06:39:28.643Z,11.05
2022-10-26T06:41:57.228Z,12.05
2022-10-26T06:44:24.545Z,11.88
2022-10-26T06:47:03.270Z,12.13
2022-10-26T06:50:02.776Z,11.73
2022-10-26T06:52:42.100Z,12.50
2022-10-26T06:55:16.813Z,12.27
2022-10-26T06:57:44.113Z,12.25
2022-10-26T07:00:20.802Z,12.18
2022-10-26T07:02:49.082Z,13.48
2022-10-26T07:05:16.381Z,12.82
2022-10-26T07:07:45.427Z,12.68
2022-10-26T07:10:13.968Z,11.95
2022-10-26T07:12:41.120Z,13.70
2022-10-26T07:17:48.249Z,12.07
2022-10-26T07:20:21.567Z,14.20
2022-10-26T07:22:55.848Z,13.32
2022-10-26T07:25:24.214Z,12.63
2022-10-26T07:27:51.348Z,13.38
2022-10-26T07:30:18.504Z,11.63
2022-10-26T07:32:48.090Z,12.65
2022-10-26T07:35:16.300Z,12.35
2022-10-26T07:37:43.170Z,13.00
2022-10-26T07:40:10.619Z,12.18
2022-10-26T07:42:37.503Z,13.10
2022-10-26T07:45:04.952Z,11.48
2022-10-26T07:47:31.745Z,11.43
2022-10-26T07:49:58.704Z,12.63
2022-10-26T07:52:28.126Z,11.60
2022-10-26T07:54:55.074Z,13.23
2022-10-26T07:57:21.892Z,13.32
2022-10-26T07:59:48.999Z,13.55
2022-10-26T08:02:15.776Z,11.60
2022-10-26T08:04:42.800Z,12.70
2022-10-26T08:07:09.562Z,12.50
2022-10-26T08:09:36.500Z,11.30
2022-10-26T08:12:03.358Z,11.00
2022-10-26T08:14:33.142Z,11.48
2022-10-26T08:16:59.886Z,10.27
2022-10-26T08:19:28.153Z,9.07
2022-10-26T08:21:54.950Z,10.10
2022-10-26T08:24:23.183Z,9.55
2022-10-26T08:26:50.055Z,10.75
2022-10-26T08:29:16.981Z,10.00
2022-10-26T08:31:47.730Z,10.82
2022-10-26T08:34:15.205Z,10.25
2022-10-26T08:36:42.016Z,10.40
2022-10-26T08:39:09.122Z,10.52
2022-10-26T08:41:47.540Z,9.60
2022-10-26T08:45:00.754Z,9.75
2022-10-26T08:47:33.017Z,11.52
2022-10-26T08:50:01.624Z,10.90
2022-10-26T08:52:42.271Z,13.40
2022-10-26T08:55:18.166Z,12.20
2022-10-26T08:57:48.449Z,11.13
2022-10-26T09:00:30.321Z,12.95
2022-10-26T09:02:57.195Z,12.43
2022-10-26T09:05:36.051Z,12.38
2022-10-26T09:08:15.725Z,10.45
2022-10-26T09:11:05.266Z,7.70
2022-10-26T09:13:58.895Z,6.70
2022-10-26T09:16:54.182Z,8.30
2022-10-26T09:19:45.151Z,8.05
2022-10-26T09:22:22.067Z,8.35
2022-10-26T09:25:07.683Z,8.50
2022-10-26T09:27:44.131Z,8.45
2022-10-26T09:30:17.769Z,8.65
2022-10-26T09:32:56.384Z,8.30
2022-10-26T09:35:26.946Z,7.00
2022-10-26T09:38:06.309Z,8.05
2022-10-26T09:40:56.363Z,7.78
2022-10-26T09:46:28.536Z,7.90
2022-10-26T09:51:36.923Z,7.90
2022-10-26T09:54:33.557Z,7.97
2022-10-26T09:57:04.292Z,6.95
2022-10-26T09:59:35.426Z,6.93
2022-10-26T10:02:33.707Z,6.22
2022-10-26T10:05:01.229Z,6.53
2022-10-26T10:07:28.083Z,6.38
2022-10-26T10:10:14.823Z,4.97
2022-10-26T10:12:41.888Z,4.65
2022-10-26T10:15:21.714Z,4.65
2022-10-26T10:17:54.253Z,5.10
2022-10-26T10:20:32.116Z,5.97
2022-10-26T10:23:01.682Z,5.78
2022-10-26T10:25:38.498Z,5.95
2022-10-26T10:28:25.695Z,7.97
2022-10-26T10:31:01.531Z,7.18
2022-10-26T10:33:40.032Z,7.68
2022-10-26T10:36:15.483Z,8.27
2022-10-26T10:38:48.459Z,8.43
2022-10-26T10:41:28.731Z,9.57
2022-10-26T10:44:04.813Z,8.68
2022-10-26T10:46:31.800Z,8.90
2022-10-26T10:49:15.566Z,9.88
2022-10-26T10:54:32.199Z,10.93
2022-10-26T10:57:19.284Z,11.40
2022-10-26T11:00:09.384Z,9.98
2022-10-26T11:02:59.129Z,10.38
2022-10-26T11:06:07.585Z,10.73
2022-10-26T11:08:55.836Z,8.63
2022-10-26T11:11:28.785Z,8.88
2022-10-26T11:13:58.439Z,10.48
2022-10-26T11:17:06.938Z,9.75
2022-10-26T11:19:53.763Z,9.95
2022-10-26T11:22:25.868Z,9.90
2022-10-26T11:25:16.823Z,10.80
2022-10-26T11:27:55.947Z,9.48
2022-10-26T11:30:27.665Z,9.95
2022-10-26T11:33:04.179Z,8.82
2022-10-26T11:35:56.535Z,10.55
2022-10-26T11:38:39.261Z,11.30
2022-10-26T11:41:31.759Z,10.27
2022-10-26T11:44:10.415Z,9.63
2022-10-26T11:46:50.340Z,11.25
2022-10-26T11:49:22.773Z,10.38
2022-10-26T11:52:28.900Z,11.50
2022-10-26T11:54:58.675Z,10.65
2022-10-26T11:57:29.731Z,11.45
2022-10-26T12:00:04.379Z,10.68
2022-10-26T12:02:37.924Z,10.18
2022-10-26T12:05:16.818Z,10.80
2022-10-26T12:07:53.569Z,11.45
2022-10-26T12:10:30.227Z,11.60
2022-10-26T12:13:27.379Z,11.43
2022-10-26T12:16:22.311Z,9.93
2022-10-26T12:19:01.211Z,10.27
2022-10-26T12:21:47.212Z,10.00
2022-10-26T12:24:28.064Z,9.38
2022-10-26T12:27:03.963Z,9.85
2022-10-26T12:29:37.048Z,10.15
2022-10-26T12:32:24.654Z,10.68
2022-10-26T12:34:51.514Z,9.75
2022-10-26T12:37:29.464Z,11.05
2022-10-26T12:40:32.621Z,10.85
2022-10-26T12:43:14.515Z,9.85
2022-10-26T12:45:46.266Z,9.68
2022-10-26T12:48:42.995Z,12.70
2022-10-26T12:51:22.178Z,11.45
2022-10-26T12:54:02.617Z,10.02
2022-10-26T12:56:42.159Z,11.52
2022-10-26T12:59:33.503Z,10.65
2022-10-26T13:02:38.373Z,11.15
2022-10-26T13:05:19.985Z,10.00
2022-10-26T13:07:47.607Z,10.25
2022-10-26T13:10:14.564Z,11.48
2022-10-26T13:12:52.793Z,10.63
2022-10-26T13:15:27.162Z,11.32
2022-10-26T13:18:17.942Z,10.98
2022-10-26T13:20:52.743Z,11.20
2022-10-26T13:23:33.043Z,11.30
2022-10-26T13:26:18.839Z,11.43
2022-10-26T13:28:53.610Z,11.25
2022-10-26T13:31:30.183Z,11.18
2022-10-26T13:34:11.032Z,10.77
2022-10-26T13:36:56.289Z,9.98
2022-10-26T13:39:31.594Z,10.25
2022-10-26T13:41:59.773Z,9.90
2022-10-26T13:44:33.592Z,10.50
2022-10-26T13:49:42.217Z,11.15
2022-10-26T13:52:33.987Z,10.88
2022-10-26T13:55:26.479Z,10.20
2022-10-26T13:58:05.302Z,11.40
2022-10-26T14:00:32.419Z,11.25
2022-10-26T14:02:59.217Z,10.85
2022-10-26T14:05:26.586Z,12.00
2022-10-26T14:07:57.456Z,10.63
2022-10-26T14:10:29.724Z,11.63
2022-10-26T14:12:57.781Z,10.77
2022-10-26T14:15:30.798Z,11.75
2022-10-26T14:18:00.236Z,9.68
2022-10-26T14:20:29.996Z,12.18
2022-10-26T14:22:57.453Z,10.90
2022-10-26T14:25:42.494Z,11.57
2022-10-26T14:28:23.355Z,10.55
2022-10-26T14:30:51.513Z,11.38
2022-10-26T14:33:20.758Z,10.38
2022-10-26T14:35:48.530Z,9.25
2022-10-26T14:38:44.424Z,10.20
2022-10-26T14:41:15.807Z,11.32
2022-10-26T14:43:44.075Z,11.55
2022-10-26T14:46:19.371Z,12.25
2022-10-26T14:48:57.948Z,10.60
2022-10-26T14:51:29.679Z,10.77
2022-10-26T14:54:01.209Z,11.27
2022-10-26T14:56:39.535Z,11.60
2022-10-26T14:59:24.257Z,11.77
2022-10-26T15:02:11.383Z,11.80
2022-10-26T15:04:41.123Z,11.43
2022-10-26T15:07:20.122Z,11.30
2022-10-26T15:09:51.687Z,10.32
2022-10-26T15:12:28.858Z,12.60
2022-10-26T15:15:06.296Z,11.43
2022-10-26T15:17:39.716Z,9.73
2022-10-26T15:20:14.203Z,11.35
2022-10-26T15:22:43.554Z,12.43
2022-10-26T15:25:20.575Z,11.65
2022-10-26T15:27:48.428Z,11.32
2022-10-26T15:30:27.540Z,11.32
2022-10-26T15:32:55.729Z,10.88
2022-10-26T15:35:26.130Z,12.02
2022-10-26T15:37:56.329Z,11.18
2022-10-26T15:42:59.598Z,13.48
2022-10-26T15:45:30.094Z,10.90
2022-10-26T15:47:59.162Z,11.35
2022-10-26T15:50:28.360Z,11.45
2022-10-26T15:53:01.553Z,10.80
2022-10-26T15:55:30.237Z,11.98
2022-10-26T15:57:57.597Z,10.90
2022-10-26T16:00:24.392Z,12.93
2022-10-26T16:02:52.772Z,11.75
2022-10-26T16:05:19.537Z,10.95
2022-10-26T16:07:48.550Z,12.25
2022-10-26T16:10:25.158Z,11.20
2022-10-26T16:12:52.811Z,11.50
2022-10-26T16:15:23.120Z,11.77
2022-10-26T16:17:51.463Z,10.57
2022-10-26T16:20:24.359Z,11.43
2022-10-26T16:22:52.976Z,10.95
2022-10-26T16:25:23.820Z,10.15
2022-10-26T16:27:52.262Z,12.60
2022-10-26T16:30:25.857Z,11.52
2022-10-26T16:35:22.148Z,10.77
2022-10-26T16:37:49.116Z,11.65
2022-10-26T16:40:15.972Z,12.15
2022-10-26T16:42:44.639Z,12.77
2022-10-26T16:45:12.992Z,12.95
2022-10-26T16:47:40.223Z,12.05
2022-10-26T16:50:12.332Z,12.18
2022-10-26T16:52:40.026Z,13.50
2022-10-26T16:55:08.736Z,13.52
2022-10-26T16:57:37.146Z,11.20
2022-10-26T17:00:07.552Z,11.65
2022-10-26T17:02:34.666Z,11.77
2022-10-26T17:05:04.380Z,12.55
2022-10-26T17:07:34.391Z,13.77
2022-10-26T17:10:01.136Z,12.93
2022-10-26T17:12:28.299Z,17.42
2022-10-26T17:14:56.331Z,15.73
2022-10-26T17:17:23.302Z,15.95
2022-10-26T17:19:50.267Z,15.02
2022-10-26T17:22:17.235Z,14.23
2022-10-26T17:24:44.052Z,14.00
2022-10-26T17:27:11.152Z,15.10
2022-10-26T17:29:38.016Z,13.10
2022-10-26T17:32:05.052Z,14.02
2022-10-26T17:34:31.821Z,13.85
2022-10-26T17:36:58.783Z,13.65
2022-10-26T17:39:25.519Z,13.88
2022-10-26T17:41:52.588Z,13.25
2022-10-26T17:44:19.339Z,13.88
2022-10-26T17:46:46.303Z,12.68
2022-10-26T17:49:13.044Z,12.88
2022-10-26T17:51:40.048Z,13.88
2022-10-26T17:54:06.968Z,12.65
2022-10-26T17:56:34.519Z,14.55
2022-10-26T17:59:05.052Z,15.30
2022-10-26T18:01:32.989Z,13.68
2022-10-26T18:04:01.024Z,13.57
2022-10-26T18:06:30.769Z,15.10
2022-10-26T18:08:58.211Z,13.85
2022-10-26T18:11:27.442Z,14.95
2022-10-26T18:13:55.751Z,12.80
2022-10-26T18:16:24.872Z,13.90
2022-10-26T18:19:00.342Z,13.45
2022-10-26T18:21:30.741Z,15.45
2022-10-26T18:23:57.483Z,13.35
2022-10-26T18:26:26.580Z,13.13
2022-10-26T18:28:55.315Z,14.30
2022-10-26T18:31:23.872Z,14.43
2022-10-26T18:34:01.322Z,13.00
2022-10-26T18:36:29.546Z,14.40
2022-10-26T18:38:56.777Z,15.32
2022-10-26T18:41:25.076Z,14.57
2022-10-26T18:43:54.290Z,13.23
2022-10-26T18:46:24.176Z,15.82
2022-10-26T18:48:51.698Z,14.77
2022-10-26T18:51:25.990Z,15.57
2022-10-26T18:53:52.738Z,15.38
2022-10-26T18:56:21.507Z,16.50
2022-10-26T18:58:55.495Z,14.20
2022-10-26T19:01:25.573Z,16.35
2022-10-26T19:04:02.097Z,16.13
2022-10-26T19:06:31.984Z,16.00
2022-10-26T19:08:59.131Z,15.68
2022-10-26T19:11:30.789Z,16.85
2022-10-26T19:13:58.326Z,16.25
2022-10-26T19:19:17.010Z,15.57
2022-10-26T19:21:45.527Z,15.02
2022-10-26T19:24:15.868Z,18.50
2022-10-26T19:26:44.060Z,18.08
2022-10-26T19:29:16.332Z,18.05
2022-10-26T19:31:51.859Z,17.95
2022-10-26T19:34:19.268Z,17.80
2022-10-26T19:36:47.161Z,17.20
2022-10-26T19:39:15.945Z,18.27
2022-10-26T19:41:43.529Z,17.55
2022-10-26T19:44:11.693Z,17.15
2022-10-26T19:46:41.746Z,17.50
2022-10-26T19:49:08.609Z,16.88
2022-10-26T19:51:35.645Z,17.83
2022-10-26T19:54:04.402Z,17.27
2022-10-26T19:56:32.844Z,15.63
2022-10-26T19:58:59.866Z,14.93
2022-10-26T20:01:26.986Z,15.02
2022-10-26T20:03:53.893Z,14.57
2022-10-26T20:06:20.972Z,14.68
2022-10-26T20:08:49.132Z,14.85
2022-10-26T20:11:18.105Z,13.95
2022-10-26T20:13:46.116Z,12.30
2022-10-26T20:16:14.473Z,12.25
2022-10-26T20:18:44.274Z,13.07
2022-10-26T20:21:17.230Z,12.98
2022-10-26T20:23:44.848Z,12.75
2022-10-26T20:26:18.630Z,11.88
2022-10-26T20:28:48.820Z,11.80
2022-10-26T20:31:15.780Z,12.50
2022-10-26T20:33:43.189Z,12.57
2022-10-26T20:36:10.147Z,11.57
2022-10-26T20:38:38.643Z,12.88
2022-10-26T20:41:09.247Z,11.57
2022-10-26T20:43:38.886Z,11.95
2022-10-26T20:46:07.057Z,11.65
2022-10-26T20:48:34.202Z,12.18
2022-10-26T20:51:07.019Z,12.10
2022-10-26T20:53:46.319Z,12.63
2022-10-26T20:56:26.375Z,12.07
2022-10-26T20:58:56.000Z,12.13
2022-10-26T21:01:26.067Z,11.57
2022-10-26T21:03:54.493Z,11.77
2022-10-26T21:06:22.305Z,11.48
2022-10-26T21:08:50.595Z,12.90
2022-10-26T21:11:18.919Z,12.50
2022-10-26T21:13:47.668Z,11.50
2022-10-26T21:16:15.919Z,11.70
2022-10-26T21:18:42.976Z,11.55
2022-10-26T21:21:10.070Z,12.27
2022-10-26T21:23:39.361Z,12.63
2022-10-26T21:26:07.274Z,12.52
2022-10-26T21:28:42.703Z,12.20
2022-10-26T21:31:11.490Z,12.25
2022-10-26T21:33:39.165Z,12.10
2022-10-26T21:36:09.435Z,12.63
2022-10-26T21:38:36.296Z,11.48
2022-10-26T21:41:06.119Z,11.77
2022-10-26T21:43:33.619Z,11.80
2022-10-26T21:46:03.370Z,12.18
2022-10-26T21:48:31.748Z,12.13
2022-10-26T21:51:00.643Z,12.65
2022-10-26T21:53:27.593Z,12.15
2022-10-26T21:56:01.491Z,13.13
2022-10-26T21:58:29.471Z,12.35
2022-10-26T22:01:17.494Z,12.65
2022-10-26T22:03:45.000Z,12.15
2022-10-26T22:06:14.650Z,11.07
2022-10-26T22:08:41.469Z,12.07
2022-10-26T22:11:15.839Z,12.98
2022-10-26T22:13:47.362Z,12.98
2022-10-26T22:16:23.472Z,11.65
2022-10-26T22:18:52.247Z,11.73
2022-10-26T22:21:20.955Z,11.55
2022-10-26T22:23:48.058Z,12.00
2022-10-26T22:26:23.270Z,13.25
2022-10-26T22:28:52.948Z,11.38
2022-10-26T22:31:32.739Z,12.55
2022-10-26T22:34:07.622Z,11.80
2022-10-26T22:36:35.574Z,13.32
2022-10-26T22:39:02.737Z,11.95
2022-10-26T22:41:30.162Z,13.05
2022-10-26T22:43:56.907Z,12.85
2022-10-26T22:46:26.102Z,14.05
2022-10-26T22:49:00.852Z,13.25
2022-10-26T22:51:30.998Z,12.45
2022-10-26T22:53:59.814Z,11.98
2022-10-26T22:56:28.104Z,12.90
2022-10-26T22:58:55.276Z,13.80
2022-10-26T23:01:25.513Z,12.70
2022-10-26T23:03:53.544Z,11.57
2022-10-26T23:06:20.989Z,12.60
2022-10-26T23:08:47.803Z,12.57
2022-10-26T23:11:17.587Z,14.20
2022-10-26T23:13:44.478Z,12.65
2022-10-26T23:16:13.502Z,11.60
2022-10-26T23:18:40.815Z,13.15
2022-10-26T23:21:09.635Z,12.48
2022-10-26T23:23:36.480Z,13.20
2022-10-26T23:26:08.672Z,12.07
2022-10-26T23:28:36.472Z,12.77
2022-10-26T23:31:04.155Z,11.52
2022-10-26T23:33:31.472Z,11.43
2022-10-26T23:35:58.539Z,12.20
2022-10-26T23:38:25.992Z,11.43
2022-10-26T23:40:54.641Z,13.07
2022-10-26T23:43:22.177Z,11.95
2022-10-26T23:45:49.144Z,12.63
2022-10-26T23:48:17.074Z,12.10
2022-10-26T23:50:44.726Z,13.13
2022-10-26T23:53:12.511Z,13.13
2022-10-26T23:55:39.877Z,12.45
2022-10-26T23:58:06.932Z,13.18
